createdAt,value
2019-02-25T00:00:53.777Z,110.57
2019-02-25T00:04:03.064Z,98.80
2019-02-25T00:07:10.622Z,110.30
2019-02-25T00:10:18.307Z,94.00
2019-02-25T00:13:25.925Z,99.07
2019-02-25T00:16:33.565Z,95.30
2019-02-25T00:19:41.261Z,90.73
2019-02-25T00:22:48.930Z,96.10
2019-02-25T00:25:56.592Z,93.97
2019-02-25T00:29:04.368Z,93.40
2019-02-25T00:32:11.891Z,86.30
2019-02-25T00:35:20.670Z,112.53
2019-02-25T00:38:28.361Z,80.23
2019-02-25T00:41:36.069Z,83.90
2019-02-25T00:44:43.725Z,88.10
2019-02-25T00:47:51.301Z,80.47
2019-02-25T00:50:59.940Z,74.47
2019-02-25T00:54:07.586Z,194.53
2019-02-25T00:57:16.067Z,195.87
2019-02-25T01:00:26.045Z,232.47
2019-02-25T01:03:33.699Z,220.70
2019-02-25T01:06:41.543Z,232.03
2019-02-25T01:09:49.141Z,206.17
2019-02-25T01:12:56.718Z,218.70
2019-02-25T01:16:04.523Z,232.77
2019-02-25T01:19:12.062Z,224.53
2019-02-25T01:22:19.613Z,222.37
2019-02-25T01:25:27.406Z,222.37
2019-02-25T01:28:36.318Z,187.23
2019-02-25T01:31:44.285Z,216.23
2019-02-25T01:34:51.861Z,192.90
2019-02-25T01:37:59.545Z,196.70
2019-02-25T01:41:07.264Z,191.27
2019-02-25T01:44:14.807Z,192.67
2019-02-25T01:47:22.893Z,210.27
2019-02-25T01:50:30.489Z,211.60
2019-02-25T01:53:38.267Z,190.37
2019-02-25T01:56:45.907Z,170.97
2019-02-25T01:59:53.587Z,168.43
2019-02-25T02:03:01.206Z,155.93
2019-02-25T02:06:09.869Z,155.37
2019-02-25T02:09:17.485Z,148.93
2019-02-25T02:12:25.170Z,150.20
2019-02-25T02:15:32.771Z,155.57
2019-02-25T02:18:40.441Z,139.03
2019-02-25T02:21:48.206Z,123.13
2019-02-25T02:24:55.871Z,123.67
2019-02-25T02:28:03.445Z,111.07
2019-02-25T02:31:11.008Z,92.83
2019-02-25T02:34:18.580Z,97.30
2019-02-25T02:37:26.224Z,97.20
2019-02-25T02:40:33.846Z,98.57
2019-02-25T02:43:41.489Z,76.87
2019-02-25T02:47:16.159Z,72.23
2019-02-25T02:50:25.492Z,65.03
2019-02-25T02:53:33.500Z,56.73
2019-02-25T02:56:41.071Z,57.73
2019-02-25T02:59:48.807Z,58.50
2019-02-25T03:02:56.424Z,79.00
2019-02-25T03:06:04.161Z,52.10
2019-02-25T03:09:12.225Z,52.30
2019-02-25T03:12:20.135Z,48.93
2019-02-25T03:15:27.963Z,44.87
2019-02-25T03:18:35.651Z,45.43
2019-02-25T03:21:43.585Z,41.50
2019-02-25T03:24:51.212Z,52.93
2019-02-25T03:27:58.853Z,51.77
2019-02-25T03:31:06.678Z,49.17
2019-02-25T03:34:14.338Z,44.10
2019-02-25T03:37:21.841Z,34.97
2019-02-25T03:40:29.551Z,36.13
2019-02-25T03:43:37.147Z,40.40
2019-02-25T03:46:44.825Z,42.10
2019-02-25T03:49:52.451Z,42.60
2019-02-25T03:53:00.021Z,50.17
2019-02-25T03:56:07.627Z,89.67
2019-02-25T03:59:15.169Z,87.27
2019-02-25T04:02:23.034Z,83.63
2019-02-25T04:05:30.889Z,90.07
2019-02-25T04:08:38.609Z,90.50
2019-02-25T04:11:46.501Z,90.07
2019-02-25T04:14:54.205Z,95.97
2019-02-25T04:18:02.305Z,100.77
2019-02-25T04:21:09.907Z,99.10
2019-02-25T04:24:17.450Z,89.40
2019-02-25T04:27:25.081Z,78.73
2019-02-25T04:30:32.743Z,68.80
2019-02-25T04:33:40.701Z,68.33
2019-02-25T04:36:48.337Z,53.93
2019-02-25T04:39:56.020Z,69.80
2019-02-25T04:43:03.545Z,77.17
2019-02-25T04:46:11.530Z,57.70
2019-02-25T04:49:20.203Z,53.40
2019-02-25T04:52:28.149Z,51.00
2019-02-25T04:55:35.847Z,45.77
2019-02-25T04:58:43.650Z,55.73
2019-02-25T05:01:51.774Z,83.83
2019-02-25T05:04:59.461Z,114.47
2019-02-25T05:08:07.049Z,113.33
2019-02-25T05:11:17.009Z,137.00
2019-02-25T05:14:24.650Z,151.47
2019-02-25T05:17:32.183Z,120.47
2019-02-25T05:20:39.964Z,113.17
2019-02-25T05:23:47.489Z,101.67
2019-02-25T05:26:56.231Z,115.63
2019-02-25T05:30:03.875Z,113.90
2019-02-25T05:33:12.540Z,111.30
2019-02-25T05:36:20.103Z,108.20
2019-02-25T05:39:27.780Z,113.97
2019-02-25T05:42:37.336Z,107.10
2019-02-25T05:45:44.963Z,94.80
2019-02-25T05:48:52.611Z,94.83
2019-02-25T05:52:00.265Z,84.47
2019-02-25T05:55:09.429Z,102.40
2019-02-25T05:58:17.128Z,96.80
2019-02-25T06:01:24.837Z,95.13
2019-02-25T06:04:32.403Z,83.43
2019-02-25T06:07:40.546Z,83.57
2019-02-25T06:10:48.268Z,71.83
2019-02-25T06:13:55.873Z,57.13
2019-02-25T06:17:03.420Z,60.53
2019-02-25T06:20:11.882Z,57.80
2019-02-25T06:23:19.477Z,43.53
2019-02-25T06:26:27.103Z,49.83
2019-02-25T06:29:34.653Z,52.87
2019-02-25T06:32:42.271Z,50.57
2019-02-25T06:35:50.940Z,59.87
2019-02-25T06:38:58.517Z,49.70
2019-02-25T06:42:06.150Z,48.77
2019-02-25T06:45:15.742Z,50.83
2019-02-25T06:48:23.302Z,48.37
2019-02-25T06:51:30.889Z,49.53
2019-02-25T06:54:38.481Z,50.70
2019-02-25T06:57:46.160Z,42.33
2019-02-25T07:00:54.132Z,42.60
2019-02-25T07:04:26.978Z,47.90
2019-02-25T07:07:52.242Z,41.77
2019-02-25T07:11:24.835Z,41.13
2019-02-25T07:14:47.512Z,36.57
2019-02-25T07:18:11.120Z,37.77
2019-02-25T07:21:40.821Z,37.00
2019-02-25T07:25:07.184Z,30.57
2019-02-25T07:28:32.623Z,43.40
2019-02-25T07:31:53.059Z,46.30
2019-02-25T07:35:08.392Z,50.23
2019-02-25T07:38:53.489Z,61.60
2019-02-25T07:42:18.931Z,50.83
2019-02-25T07:45:45.581Z,55.43
2019-02-25T07:49:03.710Z,65.53
2019-02-25T07:52:34.540Z,41.73
2019-02-25T07:56:10.034Z,53.37
2019-02-25T07:59:54.666Z,46.17
2019-02-25T08:03:15.749Z,43.40
2019-02-25T08:06:30.828Z,40.57
2019-02-25T08:09:46.375Z,68.63
2019-02-25T08:13:19.308Z,51.00
2019-02-25T08:16:44.791Z,35.07
2019-02-25T08:20:04.428Z,35.20
2019-02-25T08:23:30.874Z,45.27
2019-02-25T08:27:04.926Z,35.30
2019-02-25T08:30:24.250Z,46.20
2019-02-25T08:33:51.629Z,45.57
2019-02-25T08:38:04.531Z,53.93
2019-02-25T08:41:32.765Z,57.27
2019-02-25T08:44:55.176Z,47.00
2019-02-25T08:48:10.669Z,42.13
2019-02-25T08:51:18.324Z,44.27
2019-02-25T08:54:26.014Z,43.87
2019-02-25T08:57:33.652Z,49.70
2019-02-25T09:00:42.170Z,42.37
2019-02-25T09:03:49.914Z,50.40
2019-02-25T09:06:57.510Z,42.97
2019-02-25T09:10:06.120Z,42.70
2019-02-25T09:13:13.714Z,46.97
2019-02-25T09:16:21.292Z,41.30
2019-02-25T09:19:29.130Z,39.73
2019-02-25T09:22:36.729Z,34.43
2019-02-25T09:25:44.498Z,50.63
2019-02-25T09:28:52.690Z,42.30
2019-02-25T09:32:00.450Z,44.33
2019-02-25T09:35:08.708Z,39.53
2019-02-25T09:38:16.358Z,43.20
2019-02-25T09:41:30.029Z,38.20
2019-02-25T09:44:33.278Z,40.90
2019-02-25T09:47:40.916Z,49.60
2019-02-25T09:50:48.512Z,39.47
2019-02-25T09:53:56.139Z,53.17
2019-02-25T09:57:03.884Z,43.47
2019-02-25T10:00:14.822Z,53.23
2019-02-25T10:03:22.432Z,38.90
2019-02-25T10:06:30.044Z,41.17
2019-02-25T10:09:37.664Z,50.90
2019-02-25T10:12:45.354Z,48.20
2019-02-25T10:15:53.086Z,44.23
2019-02-25T10:19:00.639Z,47.77
2019-02-25T10:22:08.344Z,40.40
2019-02-25T10:25:15.947Z,38.20
2019-02-25T10:28:23.590Z,41.33
2019-02-25T10:31:31.290Z,41.13
2019-02-25T10:34:39.899Z,38.80
2019-02-25T10:37:48.219Z,39.17
2019-02-25T10:40:55.848Z,46.53
2019-02-25T10:44:04.822Z,39.47
2019-02-25T10:47:13.617Z,50.70
2019-02-25T10:50:22.362Z,44.60
2019-02-25T10:53:30.132Z,54.20
2019-02-25T10:56:59.908Z,43.17
2019-02-25T11:00:10.081Z,48.50
2019-02-25T11:03:20.027Z,46.43
2019-02-25T11:06:29.104Z,42.90
2019-02-25T11:09:48.340Z,47.43
2019-02-25T11:12:57.702Z,48.83
2019-02-25T11:16:06.015Z,44.50
2019-02-25T11:19:13.792Z,44.13
2019-02-25T11:22:21.533Z,55.97
2019-02-25T11:25:30.184Z,64.80
2019-02-25T11:28:39.171Z,47.73
2019-02-25T11:31:47.820Z,57.50
2019-02-25T11:34:56.428Z,44.30
2019-02-25T11:38:04.204Z,45.17
2019-02-25T11:41:11.852Z,42.47
2019-02-25T11:44:21.104Z,50.07
2019-02-25T11:47:28.669Z,45.80
2019-02-25T11:50:36.387Z,49.53
2019-02-25T11:53:44.018Z,42.90
2019-02-25T11:56:51.716Z,44.83
2019-02-25T11:59:59.812Z,49.10
2019-02-25T12:03:07.856Z,49.63
2019-02-25T12:06:15.430Z,46.57
2019-02-25T12:09:23.076Z,60.53
2019-02-25T12:12:30.631Z,51.23
2019-02-25T12:15:38.618Z,46.70
2019-02-25T12:18:46.223Z,45.27
2019-02-25T12:21:53.873Z,50.17
2019-02-25T12:25:01.436Z,39.83
2019-02-25T12:28:09.138Z,52.17
2019-02-25T12:31:18.439Z,56.57
2019-02-25T12:34:26.466Z,121.80
2019-02-25T12:37:34.622Z,47.83
2019-02-25T12:40:42.536Z,43.43
2019-02-25T12:43:50.151Z,43.50
2019-02-25T12:46:58.331Z,47.10
2019-02-25T12:50:07.441Z,74.50
2019-02-25T12:53:15.210Z,49.40
2019-02-25T12:56:23.723Z,42.13
2019-02-25T12:59:31.409Z,42.03
2019-02-25T13:02:39.404Z,40.73
2019-02-25T13:05:47.026Z,44.67
2019-02-25T13:08:55.188Z,59.63
2019-02-25T13:12:03.302Z,52.37
2019-02-25T13:15:13.891Z,106.70
2019-02-25T13:18:21.671Z,98.37
2019-02-25T13:21:29.459Z,57.40
2019-02-25T13:24:39.432Z,86.00
2019-02-25T13:27:47.199Z,56.30
2019-02-25T13:30:55.182Z,61.83
2019-02-25T13:34:03.090Z,43.97
2019-02-25T13:37:10.992Z,40.07
2019-02-25T13:40:20.025Z,69.90
2019-02-25T13:43:27.994Z,78.57
2019-02-25T13:46:35.677Z,115.13
2019-02-25T13:49:44.299Z,97.50
2019-02-25T13:52:52.570Z,122.07
2019-02-25T13:56:00.313Z,73.97
2019-02-25T13:59:08.865Z,57.30
2019-02-25T14:02:16.695Z,94.57
2019-02-25T14:05:24.737Z,53.00
2019-02-25T14:08:34.818Z,93.40
2019-02-25T14:11:42.279Z,56.03
2019-02-25T14:14:51.841Z,56.07
2019-02-25T14:17:59.854Z,58.10
2019-02-25T14:21:07.919Z,51.33
2019-02-25T14:24:16.129Z,66.43
2019-02-25T14:27:27.131Z,71.83
2019-02-25T14:30:35.223Z,57.30
2019-02-25T14:33:43.338Z,89.83
2019-02-25T14:36:52.463Z,87.47
2019-02-25T14:40:04.129Z,55.10
2019-02-25T14:43:14.828Z,58.93
2019-02-25T14:46:22.545Z,52.73
2019-02-25T14:49:32.456Z,49.63
2019-02-25T14:52:40.395Z,54.80
2019-02-25T14:55:50.337Z,48.33
2019-02-25T14:58:57.380Z,61.90
2019-02-25T15:02:06.302Z,50.57
2019-02-25T15:05:16.772Z,53.60
2019-02-25T15:08:25.790Z,62.93
2019-02-25T15:11:33.625Z,65.63
2019-02-25T15:14:42.295Z,58.43
2019-02-25T15:17:50.521Z,58.97
2019-02-25T15:21:00.649Z,61.30
2019-02-25T15:24:10.364Z,58.00
2019-02-25T15:27:20.099Z,64.43
2019-02-25T15:30:30.382Z,68.07
2019-02-25T15:33:37.984Z,77.50
2019-02-25T15:36:46.484Z,76.13
2019-02-25T15:39:55.915Z,78.03
2019-02-25T15:43:05.858Z,62.40
2019-02-25T15:46:16.642Z,67.63
2019-02-25T15:49:25.639Z,65.77
2019-02-25T15:52:39.843Z,65.30
2019-02-25T15:55:42.995Z,69.73
2019-02-25T15:58:52.300Z,69.60
2019-02-25T16:02:00.099Z,82.77
2019-02-25T16:05:09.940Z,89.03
2019-02-25T16:08:19.403Z,85.23
2019-02-25T16:11:27.354Z,92.63
2019-02-25T16:14:35.188Z,83.25
2019-02-25T16:17:44.584Z,82.23
2019-02-25T16:20:52.303Z,91.70
2019-02-25T16:24:02.049Z,97.00
2019-02-25T16:27:09.787Z,101.83
2019-02-25T16:30:19.088Z,107.30
2019-02-25T16:33:28.191Z,107.40
2019-02-25T16:36:36.405Z,117.00
2019-02-25T16:39:50.172Z,126.37
2019-02-25T16:42:59.745Z,104.67
2019-02-25T16:46:09.232Z,106.80
2019-02-25T16:49:16.894Z,98.57
2019-02-25T16:52:24.729Z,112.23
2019-02-25T16:55:32.721Z,117.37
2019-02-25T16:58:40.557Z,125.93
2019-02-25T17:01:48.231Z,133.43
2019-02-25T17:04:56.115Z,109.83
2019-02-25T17:08:05.572Z,118.30
2019-02-25T17:11:15.181Z,128.10
2019-02-25T17:14:23.980Z,98.97
2019-02-25T17:17:32.478Z,93.77
2019-02-25T17:20:40.922Z,87.60
2019-02-25T17:23:48.582Z,82.03
2019-02-25T17:26:56.147Z,93.07
2019-02-25T17:30:03.850Z,105.00
2019-02-25T17:33:14.830Z,96.87
2019-02-25T17:36:22.767Z,103.87
2019-02-25T17:39:32.891Z,89.30
2019-02-25T17:42:40.174Z,113.30
2019-02-25T17:45:47.923Z,93.23
2019-02-25T17:48:55.538Z,74.27
2019-02-25T17:52:03.217Z,78.73
2019-02-25T17:55:13.607Z,64.33
2019-02-25T17:58:21.951Z,87.40
2019-02-25T18:01:31.134Z,81.90
2019-02-25T18:04:39.967Z,107.70
2019-02-25T18:07:48.654Z,127.33
2019-02-25T18:10:59.255Z,130.93
2019-02-25T18:14:09.128Z,116.73
2019-02-25T18:17:19.197Z,154.40
2019-02-25T18:20:27.330Z,155.60
2019-02-25T18:23:36.327Z,127.87
2019-02-25T18:26:46.936Z,89.07
2019-02-25T18:29:59.587Z,98.00
2019-02-25T18:33:07.567Z,106.03
2019-02-25T18:36:16.462Z,109.43
2019-02-25T18:39:25.775Z,99.47
2019-02-25T18:42:36.478Z,185.93
2019-02-25T18:45:44.779Z,142.40
2019-02-25T18:48:52.548Z,144.47
2019-02-25T18:52:00.293Z,296.53
2019-02-25T18:55:09.520Z,132.97
2019-02-25T18:58:18.330Z,176.17
2019-02-25T19:01:26.726Z,143.87
2019-02-25T19:04:34.984Z,133.60
2019-02-25T19:07:43.707Z,103.50
2019-02-25T19:10:53.182Z,120.77
2019-02-25T19:14:03.145Z,124.37
2019-02-25T19:17:10.131Z,139.10
2019-02-25T19:20:17.967Z,128.53
2019-02-25T19:23:25.785Z,119.47
2019-02-25T19:26:33.532Z,137.63
2019-02-25T19:29:41.176Z,166.57
2019-02-25T19:32:49.297Z,153.53
2019-02-25T19:35:58.817Z,131.57
2019-02-25T19:39:11.941Z,115.30
2019-02-25T19:42:22.448Z,117.47
2019-02-25T19:45:29.742Z,115.47
2019-02-25T19:48:38.911Z,96.13
2019-02-25T19:51:48.403Z,97.00
2019-02-25T19:54:57.875Z,110.27
2019-02-25T19:58:05.722Z,104.92
2019-02-25T20:01:13.446Z,94.17
2019-02-25T20:04:21.502Z,96.13
2019-02-25T20:07:30.913Z,90.37
2019-02-25T20:10:38.674Z,103.27
2019-02-25T20:13:46.717Z,85.63
2019-02-25T20:16:54.778Z,87.60
2019-02-25T20:20:04.392Z,89.17
2019-02-25T20:23:11.891Z,82.40
2019-02-25T20:26:20.123Z,71.63
2019-02-25T20:29:29.273Z,82.80
2019-02-25T20:32:38.492Z,85.47
2019-02-25T20:35:51.051Z,78.83
2019-02-25T20:38:55.486Z,70.90
2019-02-25T20:42:04.091Z,74.10
2019-02-25T20:45:14.776Z,82.43
2019-02-25T20:48:22.529Z,75.80
2019-02-25T20:51:31.605Z,82.00
2019-02-25T20:54:41.619Z,73.37
2019-02-25T20:57:48.952Z,82.23
2019-02-25T21:00:56.625Z,82.30
2019-02-25T21:04:05.449Z,72.23
2019-02-25T21:07:13.313Z,85.20
2019-02-25T21:10:22.748Z,88.97
2019-02-25T21:13:33.415Z,78.03
2019-02-25T21:16:40.917Z,79.30
2019-02-25T21:19:48.586Z,74.53
2019-02-25T21:22:57.744Z,71.57
2019-02-25T21:26:07.448Z,65.17
2019-02-25T21:29:14.958Z,62.47
2019-02-25T21:32:24.105Z,60.10
2019-02-25T21:35:36.647Z,70.53
2019-02-25T21:38:40.947Z,71.60
2019-02-25T21:41:48.475Z,62.62
2019-02-25T21:44:57.024Z,69.37
2019-02-25T21:48:07.443Z,72.13
2019-02-25T21:51:14.791Z,78.80
2019-02-25T21:54:22.870Z,86.87
2019-02-25T21:57:31.400Z,88.10
2019-02-25T22:00:40.880Z,80.50
2019-02-25T22:03:50.477Z,83.33
2019-02-25T22:07:00.172Z,87.03
2019-02-25T22:10:09.206Z,89.40
2019-02-25T22:13:18.363Z,85.93
2019-02-25T22:16:27.861Z,74.60
2019-02-25T22:19:37.441Z,67.93
2019-02-25T22:22:45.251Z,69.00
2019-02-25T22:25:52.989Z,68.33
2019-02-25T22:29:01.828Z,63.80
2019-02-25T22:32:11.251Z,67.60
2019-02-25T22:35:19.064Z,66.53
2019-02-25T22:38:26.709Z,64.17
2019-02-25T22:41:34.467Z,100.30
2019-02-25T22:44:45.160Z,66.47
2019-02-25T22:47:53.301Z,65.73
2019-02-25T22:51:02.524Z,63.60
2019-02-25T22:54:12.148Z,73.27
2019-02-25T22:57:20.871Z,88.57
2019-02-25T23:00:58.196Z,78.07
2019-02-25T23:04:15.551Z,61.90
2019-02-25T23:07:24.618Z,56.13
2019-02-25T23:10:32.520Z,55.37
2019-02-25T23:13:40.583Z,57.63
2019-02-25T23:16:48.356Z,62.27
2019-02-25T23:19:57.798Z,57.63
2019-02-25T23:23:06.694Z,52.57
2019-02-25T23:26:17.070Z,57.17
2019-02-25T23:29:27.953Z,50.93
2019-02-25T23:32:34.007Z,53.80
2019-02-25T23:35:44.685Z,45.97
2019-02-25T23:38:52.565Z,57.70
2019-02-25T23:42:00.645Z,58.57
2019-02-25T23:45:10.753Z,57.93
2019-02-25T23:48:18.529Z,48.20
2019-02-25T23:51:27.109Z,52.43
2019-02-25T23:54:34.682Z,52.77
2019-02-25T23:57:42.483Z,58.20
